createdAt,value
2022-12-25T00:04:14.983Z,100182.44
2022-12-25T00:09:17.721Z,100181.07
2022-12-25T00:14:20.338Z,100180.40
2022-12-25T00:19:23.140Z,100180.08
2022-12-25T00:24:25.818Z,100188.70
2022-12-25T00:29:28.492Z,100188.53
2022-12-25T00:34:31.651Z,100189.05
2022-12-25T00:39:34.442Z,100190.25
2022-12-25T00:44:37.100Z,100197.98
2022-12-25T00:49:39.833Z,100205.16
2022-12-25T00:54:42.487Z,100211.85
2022-12-25T00:59:45.408Z,100221.62
2022-12-25T01:04:49.230Z,100230.39
2022-12-25T01:09:54.820Z,100238.84
2022-12-25T01:14:57.476Z,100246.74
2022-12-25T01:20:00.198Z,100252.43
2022-12-25T01:25:04.384Z,100255.17
2022-12-25T01:30:07.641Z,100247.46
2022-12-25T01:35:10.544Z,100254.00
2022-12-25T01:40:13.435Z,100265.34
2022-12-25T01:45:33.597Z,100266.20
2022-12-25T01:50:39.429Z,100259.16
2022-12-25T01:55:44.994Z,100252.64
2022-12-25T02:00:48.071Z,100252.65
2022-12-25T02:05:51.785Z,100241.65
2022-12-25T02:10:54.439Z,100244.39
2022-12-25T02:16:00.259Z,100251.95
2022-12-25T02:21:06.822Z,100262.59
2022-12-25T02:26:12.340Z,100269.30
2022-12-25T02:31:21.493Z,100271.52
2022-12-25T02:36:29.327Z,100279.76
2022-12-25T02:41:37.378Z,100278.55
2022-12-25T02:46:43.056Z,100275.48
2022-12-25T02:51:55.474Z,100277.37
2022-12-25T02:57:04.730Z,100273.08
2022-12-25T03:02:11.277Z,100275.49
2022-12-25T03:07:18.718Z,100284.45
2022-12-25T03:12:35.780Z,100282.73
2022-12-25T03:17:38.970Z,100288.77
2022-12-25T03:22:48.007Z,100285.50
2022-12-25T03:27:53.326Z,100284.11
2022-12-25T03:33:29.819Z,100284.30
2022-12-25T03:38:51.039Z,100282.24
2022-12-25T03:44:06.355Z,100284.64
2022-12-25T03:49:26.778Z,100281.54
2022-12-25T03:54:36.459Z,100286.17
2022-12-25T03:59:42.004Z,100286.71
2022-12-25T04:04:47.564Z,100296.34
2022-12-25T04:09:53.121Z,100295.31
2022-12-25T04:14:58.787Z,100295.14
2022-12-25T04:20:04.408Z,100297.73
2022-12-25T04:25:11.131Z,100282.27
2022-12-25T04:30:16.709Z,100301.87
2022-12-25T04:35:22.489Z,100312.02
2022-12-25T04:40:25.286Z,100312.18
2022-12-25T04:45:27.953Z,100299.64
2022-12-25T04:50:30.606Z,100294.14
2022-12-25T04:55:33.230Z,100297.56
2022-12-25T05:00:36.468Z,100298.06
2022-12-25T05:05:40.628Z,100298.05
2022-12-25T05:10:43.335Z,100303.73
2022-12-25T05:15:46.081Z,100306.48
2022-12-25T05:20:53.346Z,100308.21
2022-12-25T05:25:56.478Z,100310.61
2022-12-25T05:30:59.214Z,100314.21
2022-12-25T05:36:06.171Z,100334.15
2022-12-25T05:41:09.030Z,100333.65
2022-12-25T05:46:13.407Z,100342.94
2022-12-25T05:51:16.132Z,100339.69
2022-12-25T05:56:18.807Z,100343.14
2022-12-25T06:01:24.591Z,100349.66
2022-12-25T06:06:27.387Z,100342.42
2022-12-25T06:11:30.030Z,100348.41
2022-12-25T06:16:38.009Z,100359.06
2022-12-25T06:21:41.183Z,100361.46
2022-12-25T06:26:43.890Z,100368.70
2022-12-25T06:31:46.878Z,100379.69
2022-12-25T06:36:50.052Z,100390.36
2022-12-25T06:41:52.683Z,100388.80
2022-12-25T06:46:55.464Z,100399.46
2022-12-25T06:51:58.201Z,100413.37
2022-12-25T06:57:01.073Z,100422.30
2022-12-25T07:02:04.226Z,100445.34
2022-12-25T07:07:09.474Z,100449.98
2022-12-25T07:12:16.132Z,100449.48
2022-12-25T07:17:19.960Z,100450.04
2022-12-25T07:22:23.437Z,100464.52
2022-12-25T07:27:26.887Z,100474.34
2022-12-25T07:32:31.692Z,100480.56
2022-12-25T07:37:34.313Z,100492.28
2022-12-25T07:42:37.064Z,100497.11
2022-12-25T07:47:39.697Z,100500.39
2022-12-25T07:52:43.939Z,100506.77
2022-12-25T07:57:46.785Z,100507.31
2022-12-25T08:02:50.549Z,100511.80
2022-12-25T08:07:57.750Z,100513.20
2022-12-25T08:13:00.793Z,100518.20
2022-12-25T08:18:03.521Z,100526.83
2022-12-25T08:23:06.610Z,100533.71
2022-12-25T08:28:09.707Z,100542.16
2022-12-25T08:33:12.355Z,100541.33
2022-12-25T08:38:15.039Z,100543.73
2022-12-25T08:43:17.771Z,100539.41
2022-12-25T08:48:20.509Z,100544.25
2022-12-25T08:53:23.593Z,100557.50
2022-12-25T08:58:27.159Z,100558.88
2022-12-25T09:03:32.281Z,100551.46
2022-12-25T09:08:38.868Z,100550.22
2022-12-25T09:13:45.419Z,100552.25
2022-12-25T09:18:48.597Z,100553.77
2022-12-25T09:23:51.292Z,100558.73
2022-12-25T09:28:54.033Z,100563.00
2022-12-25T09:33:58.337Z,100565.52
2022-12-25T09:39:01.687Z,100559.72
2022-12-25T09:44:09.821Z,100562.02
2022-12-25T09:49:37.238Z,100563.06
2022-12-25T09:54:47.546Z,100571.94
2022-12-25T09:59:54.024Z,100568.15
2022-12-25T10:04:57.677Z,100568.65
2022-12-25T10:10:03.635Z,100583.26
2022-12-25T10:15:21.186Z,100584.55
2022-12-25T10:20:26.706Z,100571.41
2022-12-25T10:25:30.710Z,100578.73
2022-12-25T10:30:34.032Z,100581.89
2022-12-25T10:35:37.899Z,100586.73
2022-12-25T10:40:46.442Z,100573.41
2022-12-25T10:45:50.060Z,100559.75
2022-12-25T10:50:53.359Z,100558.52
2022-12-25T10:55:57.423Z,100557.48
2022-12-25T11:01:06.110Z,100556.61
2022-12-25T11:06:23.300Z,100563.16
2022-12-25T11:11:27.719Z,100560.23
2022-12-25T11:16:35.264Z,100556.10
2022-12-25T11:21:38.022Z,100560.94
2022-12-25T11:26:46.513Z,100564.73
2022-12-25T11:31:51.228Z,100572.67
2022-12-25T11:36:54.428Z,100574.77
2022-12-25T11:42:19.770Z,100577.19
2022-12-25T11:47:26.342Z,100578.23
2022-12-25T11:52:35.049Z,100584.09
2022-12-25T11:57:39.943Z,100587.17
2022-12-25T12:02:44.933Z,100595.82
2022-12-25T12:07:54.038Z,100595.30
2022-12-25T12:13:06.862Z,100593.21
2022-12-25T12:18:17.998Z,100593.91
2022-12-25T12:23:20.682Z,100587.54
2022-12-25T12:28:28.636Z,100580.48
2022-12-25T12:33:38.623Z,100572.90
2022-12-25T12:38:44.032Z,100568.56
2022-12-25T12:43:46.934Z,100568.76
2022-12-25T12:48:54.908Z,100567.20
2022-12-25T12:54:03.376Z,100570.66
2022-12-25T12:59:09.908Z,100566.86
2022-12-25T13:04:18.809Z,100566.16
2022-12-25T13:09:34.451Z,100575.98
2022-12-25T13:14:37.993Z,100582.54
2022-12-25T13:19:42.952Z,100584.95
2022-12-25T13:31:58.491Z,100585.27
2022-12-25T13:37:09.388Z,100576.13
2022-12-25T13:42:16.870Z,100578.20
2022-12-25T13:47:30.107Z,100582.20
2022-12-25T13:52:35.711Z,100582.55
2022-12-25T13:57:45.556Z,100582.39
2022-12-25T14:02:49.034Z,100583.11
2022-12-25T14:07:53.719Z,100582.63
2022-12-25T14:13:00.724Z,100576.44
2022-12-25T14:18:03.577Z,100574.38
2022-12-25T14:23:07.272Z,100570.93
2022-12-25T14:28:24.697Z,100571.96
2022-12-25T14:33:31.458Z,100591.80
2022-12-25T14:38:35.726Z,100603.17
2022-12-25T14:43:40.369Z,100619.20
2022-12-25T14:48:43.476Z,100629.54
2022-12-25T14:53:49.170Z,100627.48
2022-12-25T14:58:55.031Z,100633.33
2022-12-25T15:04:03.442Z,100632.98
2022-12-25T15:09:14.831Z,100626.26
2022-12-25T15:14:17.822Z,100624.02
2022-12-25T15:19:36.891Z,100618.67
2022-12-25T15:24:40.543Z,100615.05
2022-12-25T15:35:07.084Z,100621.62
2022-12-25T15:40:13.545Z,100611.10
2022-12-25T15:45:21.724Z,100599.89
2022-12-25T15:50:24.466Z,100585.59
2022-12-25T15:55:27.204Z,100576.12
2022-12-25T16:00:30.193Z,100570.61
2022-12-25T16:05:32.874Z,100570.77
2022-12-25T16:10:38.848Z,100592.98
2022-12-25T16:15:41.811Z,100611.23
2022-12-25T16:20:44.883Z,100608.30
2022-12-25T16:25:48.357Z,100602.45
2022-12-25T16:30:51.276Z,100609.18
2022-12-25T16:35:55.190Z,100614.35
2022-12-25T16:41:00.157Z,100611.77
2022-12-25T16:46:09.999Z,100610.58
2022-12-25T16:51:15.863Z,100607.13
2022-12-25T16:56:20.774Z,100610.92
2022-12-25T17:01:24.173Z,100595.06
2022-12-25T17:06:28.467Z,100593.16
2022-12-25T17:11:32.152Z,100598.16
2022-12-25T17:16:36.939Z,100607.46
2022-12-25T17:21:39.610Z,100596.09
2022-12-25T17:26:43.860Z,100589.20
2022-12-25T17:31:46.860Z,100586.27
2022-12-25T17:36:49.612Z,100585.08
2022-12-25T17:41:52.379Z,100581.45
2022-12-25T17:46:55.495Z,100579.38
2022-12-25T17:51:58.202Z,100581.27
2022-12-25T17:57:01.273Z,100581.29
2022-12-25T18:02:04.094Z,100583.35
2022-12-25T18:07:06.774Z,100571.47
2022-12-25T18:12:09.527Z,100569.91
2022-12-25T18:17:12.157Z,100567.15
2022-12-25T18:22:15.173Z,100562.85
2022-12-25T18:27:18.185Z,100554.75
2022-12-25T18:32:26.303Z,100543.90
2022-12-25T18:37:35.920Z,100542.86
2022-12-25T18:42:43.391Z,100542.35
2022-12-25T18:47:46.638Z,100543.91
2022-12-25T18:52:51.760Z,100541.48
2022-12-25T18:57:55.368Z,100540.29
2022-12-25T19:02:59.433Z,100538.58
2022-12-25T19:08:03.011Z,100530.80
2022-12-25T19:13:06.826Z,100520.98
2022-12-25T19:18:10.131Z,100515.98
2022-12-25T19:23:12.754Z,100512.19
2022-12-25T19:28:17.671Z,100500.64
2022-12-25T19:33:21.777Z,100502.02
2022-12-25T19:38:24.443Z,100492.71
2022-12-25T19:43:30.549Z,100490.30
2022-12-25T19:48:33.990Z,100475.98
2022-12-25T19:53:36.628Z,100472.69
2022-12-25T19:58:39.986Z,100473.20
2022-12-25T20:03:46.293Z,100475.79
2022-12-25T20:08:52.671Z,100488.20
2022-12-25T20:13:55.887Z,100493.71
2022-12-25T20:18:59.249Z,100486.14
2022-12-25T20:24:01.982Z,100479.06
2022-12-25T20:29:05.285Z,100474.27
2022-12-25T20:34:10.299Z,100477.19
2022-12-25T20:39:13.297Z,100478.55
2022-12-25T20:44:16.086Z,100483.20
2022-12-25T20:49:19.022Z,100479.23
2022-12-25T20:54:21.712Z,100471.83
2022-12-25T20:59:24.675Z,100468.54
2022-12-25T21:04:27.418Z,100458.02
2022-12-25T21:09:30.138Z,100443.88
2022-12-25T21:14:32.871Z,100436.82
2022-12-25T21:19:35.557Z,100430.26
2022-12-25T21:24:38.443Z,100426.13
2022-12-25T21:29:41.291Z,100418.88
2022-12-25T21:34:44.160Z,100402.66
2022-12-25T21:39:50.457Z,100393.33
2022-12-25T21:44:53.014Z,100380.75
2022-12-25T21:49:58.615Z,100391.08
2022-12-25T21:55:01.275Z,100385.21
2022-12-25T22:00:04.992Z,100377.45
2022-12-25T22:05:08.051Z,100366.06
2022-12-25T22:10:10.642Z,100362.77
2022-12-25T22:15:13.289Z,100356.39
2022-12-25T22:20:21.996Z,100339.00
2022-12-25T22:25:25.348Z,100328.67
2022-12-25T22:30:29.437Z,100314.19
2022-12-25T22:35:32.477Z,100299.67
2022-12-25T22:40:37.548Z,100289.69
2022-12-25T22:45:40.236Z,100279.84
2022-12-25T22:50:42.889Z,100271.56
2022-12-25T22:55:47.087Z,100264.27
2022-12-25T23:00:49.741Z,100250.63
2022-12-25T23:05:56.726Z,100246.84
2022-12-25T23:11:03.469Z,100244.40
2022-12-25T23:16:06.345Z,100240.23
2022-12-25T23:22:17.504Z,100220.56
2022-12-25T23:27:20.366Z,100209.70
2022-12-25T23:32:25.558Z,100194.19
2022-12-25T23:37:28.476Z,100212.48
2022-12-25T23:42:33.797Z,100224.53
2022-12-25T23:47:36.497Z,100221.77
2022-12-25T23:52:39.775Z,100222.12
2022-12-25T23:57:42.547Z,100223.84
